createdAt,value
2023-02-05T00:04:49.098Z,1.70
2023-02-05T00:10:54.484Z,1.70
2023-02-05T00:16:56.256Z,1.80
2023-02-05T00:22:58.183Z,2.00
2023-02-05T00:28:59.958Z,1.90
2023-02-05T00:35:01.705Z,1.90
2023-02-05T00:41:04.460Z,1.70
2023-02-05T00:47:06.354Z,1.70
2023-02-05T00:53:08.098Z,1.50
2023-02-05T00:59:09.895Z,1.30
2023-02-05T01:05:12.386Z,1.20
2023-02-05T01:11:15.203Z,1.10
2023-02-05T01:17:17.273Z,0.90
2023-02-05T01:23:18.999Z,1.00
2023-02-05T01:29:20.763Z,1.00
2023-02-05T01:35:22.607Z,1.00
2023-02-05T01:41:24.591Z,1.00
2023-02-05T01:47:26.411Z,1.00
2023-02-05T01:53:31.584Z,1.10
2023-02-05T01:59:36.258Z,1.10
2023-02-05T02:05:37.933Z,1.10
2023-02-05T02:11:43.014Z,1.10
2023-02-05T02:17:47.710Z,0.90
2023-02-05T02:24:08.711Z,0.80
2023-02-05T02:30:26.158Z,0.80
2023-02-05T02:36:35.683Z,0.70
2023-02-05T02:42:49.125Z,0.80
2023-02-05T02:48:56.217Z,1.00
2023-02-05T02:55:05.614Z,1.10
2023-02-05T03:01:11.557Z,1.30
2023-02-05T03:07:16.366Z,1.10
2023-02-05T03:13:19.646Z,1.30
2023-02-05T03:19:21.545Z,1.30
2023-02-05T03:25:25.321Z,1.30
2023-02-05T03:31:45.469Z,1.10
2023-02-05T03:38:08.256Z,1.10
2023-02-05T03:44:19.131Z,1.00
2023-02-05T03:50:33.640Z,0.90
2023-02-05T03:57:01.057Z,1.10
2023-02-05T04:03:02.905Z,1.20
2023-02-05T04:09:05.004Z,1.20
2023-02-05T04:15:09.101Z,1.20
2023-02-05T04:21:11.017Z,1.20
2023-02-05T04:27:14.014Z,1.10
2023-02-05T04:33:17.009Z,1.30
2023-02-05T04:39:18.890Z,1.40
2023-02-05T04:45:20.684Z,1.30
2023-02-05T04:51:22.669Z,1.10
2023-02-05T04:57:24.611Z,1.00
2023-02-05T05:03:26.494Z,0.90
2023-02-05T05:09:28.559Z,1.00
2023-02-05T05:15:30.505Z,0.90
2023-02-05T05:21:32.486Z,1.00
2023-02-05T05:27:34.309Z,1.20
2023-02-05T05:33:36.687Z,1.50
2023-02-05T05:39:56.985Z,1.70
2023-02-05T05:45:58.953Z,1.80
2023-02-05T05:52:00.902Z,1.90
2023-02-05T05:58:02.721Z,1.90
2023-02-05T06:04:04.864Z,1.90
2023-02-05T06:10:07.229Z,1.90
2023-02-05T06:16:09.239Z,1.80
2023-02-05T06:22:11.072Z,1.80
2023-02-05T06:28:13.186Z,1.80
2023-02-05T06:34:15.194Z,1.70
2023-02-05T06:40:22.490Z,1.80
2023-02-05T06:46:24.498Z,1.70
2023-02-05T06:52:27.060Z,1.80
2023-02-05T06:58:29.598Z,1.90
2023-02-05T07:04:32.224Z,1.70
2023-02-05T07:10:34.364Z,1.60
2023-02-05T07:16:36.521Z,1.70
2023-02-05T07:22:38.972Z,1.60
2023-02-05T07:28:41.484Z,1.60
2023-02-05T07:34:44.700Z,1.60
2023-02-05T07:40:46.534Z,1.50
2023-02-05T07:46:48.764Z,1.60
2023-02-05T07:52:50.756Z,1.60
2023-02-05T07:58:52.732Z,1.40
2023-02-05T08:04:54.499Z,1.50
2023-02-05T08:11:02.838Z,1.40
2023-02-05T08:17:06.253Z,1.50
2023-02-05T08:23:08.151Z,1.60
2023-02-05T08:29:11.149Z,1.50
2023-02-05T08:35:13.079Z,1.60
2023-02-05T08:41:15.653Z,1.70
2023-02-05T08:47:21.410Z,1.90
2023-02-05T08:53:23.400Z,2.00
2023-02-05T08:59:27.610Z,2.00
2023-02-05T09:05:29.595Z,1.90
2023-02-05T09:11:31.621Z,1.90
2023-02-05T09:17:34.108Z,2.00
2023-02-05T09:23:38.989Z,2.00
2023-02-05T09:29:42.037Z,2.10
2023-02-05T09:35:44.563Z,2.30
2023-02-05T09:42:01.041Z,2.30
2023-02-05T09:48:28.154Z,2.40
2023-02-05T09:54:35.423Z,2.50
2023-02-05T10:00:46.861Z,2.60
2023-02-05T10:07:19.529Z,2.70
2023-02-05T10:13:41.349Z,2.80
2023-02-05T10:20:04.089Z,2.80
2023-02-05T10:26:12.477Z,3.00
2023-02-05T10:32:26.098Z,3.20
2023-02-05T10:38:34.021Z,3.40
2023-02-05T10:44:42.847Z,3.60
2023-02-05T10:51:05.174Z,4.00
2023-02-05T10:57:16.155Z,3.90
2023-02-05T11:03:20.055Z,3.90
2023-02-05T11:09:25.363Z,3.70
2023-02-05T11:15:30.619Z,3.90
2023-02-05T11:21:47.717Z,3.80
2023-02-05T11:27:58.179Z,3.80
2023-02-05T11:34:09.066Z,3.90
2023-02-05T11:40:28.162Z,4.00
2023-02-05T11:46:35.023Z,4.00
2023-02-05T11:52:38.134Z,4.00
2023-02-05T11:58:40.415Z,4.00
2023-02-05T12:04:48.461Z,4.10
2023-02-05T12:11:19.397Z,4.10
2023-02-05T12:17:36.446Z,4.20
2023-02-05T12:24:01.590Z,4.10
2023-02-05T12:30:40.629Z,3.90
2023-02-05T12:37:01.801Z,3.80
2023-02-05T12:43:06.984Z,3.80
2023-02-05T12:49:33.314Z,3.80
2023-02-05T12:55:56.275Z,3.70
2023-02-05T13:02:20.021Z,3.80
2023-02-05T13:08:43.084Z,3.80
2023-02-05T13:14:49.522Z,3.60
2023-02-05T13:21:26.872Z,3.70
2023-02-05T13:27:52.899Z,3.70
2023-02-05T13:34:00.818Z,3.60
2023-02-05T13:40:40.779Z,3.70
2023-02-05T13:46:54.665Z,3.70
2023-02-05T13:53:37.805Z,3.80
2023-02-05T13:59:51.690Z,3.80
2023-02-05T14:05:53.884Z,3.80
2023-02-05T14:12:01.599Z,3.80
2023-02-05T14:18:03.705Z,3.80
2023-02-05T14:24:38.054Z,3.80
2023-02-05T14:30:52.986Z,3.80
2023-02-05T14:36:55.400Z,3.80
2023-02-05T14:43:24.460Z,3.80
2023-02-05T14:49:34.227Z,3.70
2023-02-05T14:55:40.728Z,3.70
2023-02-05T15:01:44.804Z,3.60
2023-02-05T15:07:49.132Z,3.60
2023-02-05T15:14:21.757Z,3.60
2023-02-05T15:20:27.792Z,3.60
2023-02-05T15:26:35.443Z,3.60
2023-02-05T15:32:52.767Z,3.50
2023-02-05T15:39:36.828Z,3.50
2023-02-05T15:45:44.936Z,3.50
2023-02-05T15:51:48.235Z,3.50
2023-02-05T15:57:51.518Z,3.50
2023-02-05T16:03:54.360Z,3.40
2023-02-05T16:10:01.992Z,3.40
2023-02-05T16:16:24.242Z,3.40
2023-02-05T16:22:41.177Z,3.40
2023-02-05T16:29:03.010Z,3.40
2023-02-05T16:35:08.644Z,3.40
2023-02-05T16:41:40.350Z,3.40
2023-02-05T16:47:42.398Z,3.30
2023-02-05T16:53:49.916Z,3.40
2023-02-05T17:00:05.283Z,3.30
2023-02-05T17:06:15.898Z,3.30
2023-02-05T17:12:38.827Z,3.20
2023-02-05T17:18:42.173Z,3.20
2023-02-05T17:24:46.996Z,3.20
2023-02-05T17:30:50.381Z,3.20
2023-02-05T17:36:52.665Z,3.20
2023-02-05T17:42:54.917Z,3.10
2023-02-05T17:48:57.276Z,3.10
2023-02-05T17:54:59.325Z,3.10
2023-02-05T18:01:01.583Z,3.10
2023-02-05T18:07:03.997Z,3.10
2023-02-05T18:13:06.327Z,3.10
2023-02-05T18:19:08.348Z,3.10
2023-02-05T18:25:10.307Z,3.10
2023-02-05T18:31:12.844Z,3.00
2023-02-05T18:37:17.566Z,3.10
2023-02-05T18:43:19.919Z,3.10
2023-02-05T18:49:22.305Z,3.10
2023-02-05T18:55:24.624Z,3.10
2023-02-05T19:01:29.324Z,3.10
2023-02-05T19:07:31.361Z,3.10
2023-02-05T19:13:33.536Z,3.20
2023-02-05T19:19:35.880Z,3.20
2023-02-05T19:25:39.495Z,3.10
2023-02-05T19:31:42.761Z,3.20
2023-02-05T19:37:44.822Z,3.20
2023-02-05T19:43:52.502Z,3.20
2023-02-05T19:49:54.995Z,3.20
2023-02-05T19:56:07.433Z,3.20
2023-02-05T20:02:17.865Z,3.20
2023-02-05T20:08:20.777Z,3.20
2023-02-05T20:14:24.270Z,3.20
2023-02-05T20:20:33.537Z,3.20
2023-02-05T20:26:37.556Z,3.30
2023-02-05T20:32:39.866Z,3.30
2023-02-05T20:38:42.350Z,3.30
2023-02-05T20:44:44.896Z,3.30
2023-02-05T20:50:47.148Z,3.40
2023-02-05T20:56:57.391Z,3.40
2023-02-05T21:03:00.321Z,3.40
2023-02-05T21:09:02.253Z,3.40
2023-02-05T21:15:04.263Z,3.40
2023-02-05T21:21:17.334Z,3.30
2023-02-05T21:27:21.913Z,3.20
2023-02-05T21:33:23.789Z,3.20
2023-02-05T21:39:25.871Z,3.30
2023-02-05T21:45:27.783Z,3.20
2023-02-05T21:51:31.867Z,3.20
2023-02-05T21:57:33.775Z,3.20
2023-02-05T22:03:35.556Z,3.30
2023-02-05T22:09:37.373Z,3.20
2023-02-05T22:15:39.123Z,3.10
2023-02-05T22:21:42.767Z,3.10
2023-02-05T22:27:44.572Z,2.90
2023-02-05T22:33:48.481Z,2.70
2023-02-05T22:39:50.276Z,2.40
2023-02-05T22:45:52.074Z,2.30
2023-02-05T22:51:53.965Z,2.20
2023-02-05T22:57:55.771Z,2.20
2023-02-05T23:03:58.218Z,2.20
2023-02-05T23:10:00.001Z,2.20
2023-02-05T23:16:11.476Z,2.10
2023-02-05T23:22:13.305Z,2.00
2023-02-05T23:28:16.173Z,1.90
2023-02-05T23:34:18.059Z,1.80
2023-02-05T23:40:19.914Z,1.90
2023-02-05T23:46:21.724Z,1.80
2023-02-05T23:52:23.454Z,1.70
2023-02-05T23:58:26.055Z,1.70
